Nearby METAR Reports

 

YBBN - Brisbane Intl Ar, Australia
Distance from station: SE 37km
Updated: 22/05/2019 02:00
Few Clouds
Few Clouds
 Wind from SSW
Wind: SSW 11 km/h
Temperature: 16°C
Dew Point: 14°C
Humidity: 88%
Barometer: 1026 hPa
Clouds: Few Clouds
Visibility: 10 km
Cloud details: Few Clouds 1189 m
2019/05/21 16:00 YBBN 211600Z 21006KT 9999 FEW039 16/14 Q1026
YAMB - Amberley, Australia
Distance from station: SSW 50km
Updated: 22/05/2019 02:30
Partly cloudy
Partly cloudy
 Wind from calm
Wind: Calm
Temperature: 11°C
Dew Point: 11°C
Humidity: 100%
Barometer: 1026 hPa
Clouds: Partly cloudy
Visibility: 1 km
Cloud details: Partly cloudy 91 m
2019/05/21 16:30 YAMB 211630Z AUTO 00000KT 0700 // SCT003 11/11 Q1026
 
YBOK - Oakey (army/Civ), Australia
Distance from station: WSW 112km
Updated: 22/05/2019 02:00
Clear
Clear
 Wind from E
Wind: E 13 km/h
Temperature: 12°C
Dew Point: 12°C
Humidity: 100%
Barometer: 1026 hPa
Clouds: Clear
Visibility: 10 km
2019/05/21 16:00 YBOK 211600Z AUTO 08007KT 9999 // NCD 12/12 Q1026
YKRY - Kingaroy Arpt, Australia
Distance from station: NW 121km
Updated: 22/05/2019 02:00
Clear
Clear
 Wind from SSE
Wind: SSE 7 km/h
Temperature: 11°C
Dew Point: 10°C
Humidity: 94%
Barometer: 1027 hPa
Clouds: Clear
Visibility: 10 km
2019/05/21 16:00 YKRY 211600Z AUTO 16004KT 9999 // NCD 11/10 Q1027
 
YBCG - Coolangatta Aws, Australia
Distance from station: SSE 127km
Updated: 22/05/2019 02:00
Partly cloudy
Partly cloudy
 Wind from SSW
Wind: SSW 4 km/h
Temperature: 15°C
Dew Point: 15°C
Humidity: 100%
Barometer: 1026 hPa
Clouds: Partly cloudy
Visibility: 10 km
Cloud details: Partly cloudy 1250 m
2019/05/21 16:00 YBCG 211600Z AUTO 21002KT 9999 // SCT041 15/15 Q1026
YLIS - Lismore Arpt, Australia
Distance from station: SSE 187km
Updated: 22/05/2019 02:30
Overcast
Overcast
 Wind from N
Wind: N 9 km/h
Temperature: 13°C
Dew Point: 12°C
Humidity: 94%
Barometer: 1026 hPa
Clouds: Overcast
Visibility: 0 km
Cloud details: Overcast 30 m
2019/05/21 16:30 YLIS 211630Z AUTO 36005KT 0200 // OVC001 13/12 Q1026
 
YCAS - Casino Airport, Australia
Distance from station: S 189km
Updated: 22/05/2019 02:00

 Wind from W
Wind: W 6 km/h
Temperature: 12°C
Dew Point: 11°C
Humidity: 94%
Barometer: 1026 hPa
2019/05/21 16:00 YCAS 211600Z AUTO 28003KT //// // ////// 12/11 Q1026
YBNA - Ballina Byron G., Australia
Distance from station: SSE 196km
Updated: 22/05/2019 02:00

 Wind from calm
Wind: Calm
Temperature: 13°C
Dew Point: 12°C
Humidity: 94%
Barometer: 1026 hPa
Visibility: 1 km
2019/05/21 16:00 YBNA 211600Z AUTO 00000KT 0800 // ////// 13/12 Q1026
 
YBUD - Bundaberg, Australia
Distance from station: NNW 260km
Updated: 22/05/2019 02:00
Overcast
Overcast
 Wind from S
Wind: S 11 km/h
Temperature: 18°C
Dew Point: 16°C
Humidity: 88%
Barometer: 1024 hPa
Clouds: Overcast
Visibility: 10 km
Cloud details: Partly cloudy 1280 m
Mostly cloudy 1433 m
Overcast 1707 m
2019/05/21 16:00 YBUD 211600Z AUTO 17006KT 9999 // SCT042 BKN047 OVC056 18/16 Q1024
YGFN - Grafton Arpt, Australia
Distance from station: S 287km
Updated: 22/05/2019 02:30
Clear
Clear
 Wind from calm
Wind: Calm
Temperature: 11°C
Dew Point: 11°C
Humidity: 100%
Barometer: 1026 hPa
Clouds: Clear
Visibility: 10 km
2019/05/21 16:30 YGFN 211630Z AUTO 00000KT 9999 // NCD 11/11 Q1026